createdAt,value
2018-12-01T00:01:00.062Z,119.43
2018-12-01T00:03:28.283Z,138.97
2018-12-01T00:05:56.030Z,119.60
2018-12-01T00:08:24.764Z,127.17
2018-12-01T00:10:52.639Z,137.60
2018-12-01T00:13:20.515Z,134.33
2018-12-01T00:15:48.381Z,137.70
2018-12-01T00:18:16.799Z,136.93
2018-12-01T00:20:44.542Z,145.33
2018-12-01T00:23:12.269Z,134.50
2018-12-01T00:25:40.065Z,143.40
2018-12-01T00:28:07.939Z,151.40
2018-12-01T00:30:35.687Z,142.17
2018-12-01T00:33:03.440Z,138.60
2018-12-01T00:35:31.429Z,144.87
2018-12-01T00:37:59.280Z,151.60
2018-12-01T00:40:27.029Z,142.63
2018-12-01T00:42:55.165Z,148.50
2018-12-01T00:45:23.459Z,136.77
2018-12-01T00:47:51.612Z,130.17
2018-12-01T00:50:19.870Z,123.27
2018-12-01T00:52:48.034Z,112.47
2018-12-01T00:55:16.261Z,112.70
2018-12-01T00:57:44.092Z,104.17
2018-12-01T01:00:14.512Z,102.97
2018-12-01T01:02:42.401Z,108.97
2018-12-01T01:05:10.233Z,115.30
2018-12-01T01:07:38.084Z,101.63
2018-12-01T01:10:07.697Z,102.97
2018-12-01T01:12:35.797Z,108.77
2018-12-01T01:15:03.625Z,107.83
2018-12-01T01:17:31.432Z,110.87
2018-12-01T01:19:59.299Z,104.90
2018-12-01T01:22:27.063Z,103.23
2018-12-01T01:24:54.897Z,102.10
2018-12-01T01:27:22.771Z,102.63
2018-12-01T01:29:50.538Z,106.70
2018-12-01T01:32:18.537Z,100.27
2018-12-01T01:34:46.448Z,110.00
2018-12-01T01:37:14.338Z,108.60
2018-12-01T01:39:42.141Z,113.10
2018-12-01T01:42:09.892Z,121.13
2018-12-01T01:44:37.729Z,111.90
2018-12-01T01:47:05.566Z,117.40
2018-12-01T01:49:33.412Z,118.73
2018-12-01T01:52:01.208Z,126.77
2018-12-01T01:54:29.100Z,117.20
2018-12-01T01:56:57.097Z,114.90
2018-12-01T01:59:24.883Z,119.93
2018-12-01T02:01:52.744Z,118.37
2018-12-01T02:04:20.486Z,114.77
2018-12-01T02:06:48.312Z,121.17
2018-12-01T02:09:15.955Z,139.67
2018-12-01T02:11:43.787Z,145.33
2018-12-01T02:14:11.490Z,153.20
2018-12-01T02:16:39.624Z,189.13
2018-12-01T02:19:07.498Z,194.43
2018-12-01T02:21:35.260Z,202.97
2018-12-01T02:24:03.072Z,195.17
2018-12-01T02:26:31.135Z,181.83
2018-12-01T02:28:58.992Z,171.30
2018-12-01T02:31:26.671Z,139.23
2018-12-01T02:33:54.601Z,120.60
2018-12-01T02:36:22.608Z,115.93
2018-12-01T02:38:50.433Z,126.93
2018-12-01T02:41:18.309Z,156.47
2018-12-01T02:43:49.376Z,196.80
2018-12-01T02:46:22.588Z,193.43
2018-12-01T02:48:50.358Z,190.97
2018-12-01T02:51:18.001Z,156.00
2018-12-01T02:53:45.859Z,146.73
2018-12-01T02:58:47.604Z,119.60
2018-12-01T03:01:15.376Z,118.27
2018-12-01T03:03:43.275Z,113.83
2018-12-01T03:06:11.046Z,120.47
2018-12-01T03:08:38.839Z,116.27
2018-12-01T03:11:06.683Z,106.17
2018-12-01T03:13:34.609Z,100.13
2018-12-01T03:16:02.369Z,98.47
2018-12-01T03:18:30.181Z,104.17
2018-12-01T03:20:57.898Z,89.33
2018-12-01T03:23:25.722Z,91.13
2018-12-01T03:25:55.422Z,105.33
2018-12-01T03:28:23.241Z,98.97
2018-12-01T03:30:50.957Z,88.73
2018-12-01T03:33:18.751Z,96.33
2018-12-01T03:35:46.893Z,95.20
2018-12-01T03:38:14.803Z,97.77
2018-12-01T03:40:48.612Z,99.63
2018-12-01T03:43:16.570Z,87.40
2018-12-01T03:45:44.362Z,94.47
2018-12-01T03:48:18.868Z,110.57
2018-12-01T03:50:46.619Z,101.87
2018-12-01T03:53:14.463Z,108.33
2018-12-01T03:55:42.315Z,110.40
2018-12-01T03:58:10.093Z,122.20
2018-12-01T04:00:38.069Z,127.93
2018-12-01T04:03:06.458Z,136.10
2018-12-01T04:05:34.261Z,149.30
2018-12-01T04:08:01.958Z,146.70
2018-12-01T04:10:29.711Z,111.20
2018-12-01T04:12:57.447Z,121.00
2018-12-01T04:15:25.348Z,126.90
2018-12-01T04:17:53.197Z,124.87
2018-12-01T04:20:20.809Z,131.97
2018-12-01T04:22:49.177Z,170.73
2018-12-01T04:25:16.958Z,233.43
2018-12-01T04:27:44.685Z,247.30
2018-12-01T04:30:14.076Z,251.97
2018-12-01T04:32:41.905Z,235.87
2018-12-01T04:35:10.110Z,202.27
2018-12-01T04:37:37.927Z,180.27
2018-12-01T04:40:06.954Z,171.33
2018-12-01T04:42:34.722Z,161.50
2018-12-01T04:45:02.437Z,153.63
2018-12-01T04:47:30.341Z,150.13
2018-12-01T04:49:58.181Z,159.97
2018-12-01T04:52:25.875Z,183.43
2018-12-01T04:54:53.662Z,185.30
2018-12-01T04:57:21.457Z,187.53
2018-12-01T04:59:49.265Z,156.10
2018-12-01T05:02:17.033Z,138.07
2018-12-01T05:04:44.796Z,130.87
2018-12-01T05:07:12.671Z,126.53
2018-12-01T05:09:40.405Z,120.30
2018-12-01T05:12:08.246Z,122.90
2018-12-01T05:14:35.927Z,113.73
2018-12-01T05:17:03.761Z,116.37
2018-12-01T05:19:31.834Z,107.07
2018-12-01T05:21:59.749Z,98.93
2018-12-01T05:24:27.505Z,107.87
2018-12-01T05:26:55.608Z,103.33
2018-12-01T05:29:23.632Z,95.13
2018-12-01T05:31:51.526Z,106.77
2018-12-01T05:34:19.360Z,109.00
2018-12-01T05:36:47.014Z,102.80
2018-12-01T05:39:14.833Z,101.73
2018-12-01T05:41:42.547Z,108.83
2018-12-01T05:44:10.312Z,113.17
2018-12-01T05:46:38.041Z,98.17
2018-12-01T05:49:05.767Z,100.23
2018-12-01T05:51:33.493Z,97.93
2018-12-01T05:54:01.280Z,93.13
2018-12-01T05:56:28.988Z,96.20
2018-12-01T05:58:57.107Z,100.97
2018-12-01T06:01:24.820Z,100.80
2018-12-01T06:03:53.096Z,87.77
2018-12-01T06:06:20.916Z,92.80
2018-12-01T06:08:48.714Z,91.63
2018-12-01T06:11:16.541Z,94.30
2018-12-01T06:13:44.303Z,95.33
2018-12-01T06:16:12.176Z,91.47
2018-12-01T06:18:39.922Z,93.60
2018-12-01T06:21:07.992Z,100.42
2018-12-01T06:23:35.834Z,96.53
2018-12-01T06:26:03.668Z,98.67
2018-12-01T06:28:31.498Z,99.07
2018-12-01T06:30:59.567Z,98.87
2018-12-01T06:33:27.502Z,93.03
2018-12-01T06:35:55.197Z,97.50
2018-12-01T06:38:23.104Z,102.77
2018-12-01T06:40:50.744Z,92.33
2018-12-01T06:43:18.498Z,112.37
2018-12-01T06:45:46.350Z,107.80
2018-12-01T06:48:14.125Z,113.37
2018-12-01T06:50:41.935Z,102.17
2018-12-01T06:53:09.715Z,103.17
2018-12-01T06:55:37.610Z,104.97
2018-12-01T06:58:05.311Z,101.67
2018-12-01T07:00:33.181Z,106.67
2018-12-01T07:03:01.171Z,107.33
2018-12-01T07:05:28.975Z,106.43
2018-12-01T07:07:56.929Z,95.33
2018-12-01T07:10:24.636Z,94.47
2018-12-01T07:12:55.978Z,97.83
2018-12-01T07:15:25.411Z,94.57
2018-12-01T07:17:53.252Z,104.17
2018-12-01T07:20:21.007Z,101.40
2018-12-01T07:22:49.166Z,103.47
2018-12-01T07:25:17.081Z,93.60
2018-12-01T07:27:44.825Z,106.70
2018-12-01T07:30:13.061Z,104.63
2018-12-01T07:32:41.128Z,104.83
2018-12-01T07:35:08.913Z,101.50
2018-12-01T07:37:36.641Z,104.93
2018-12-01T07:40:06.131Z,102.03
2018-12-01T07:42:33.910Z,104.77
2018-12-01T07:45:01.920Z,120.00
2018-12-01T07:47:29.611Z,115.73
2018-12-01T07:49:57.312Z,124.87
2018-12-01T07:52:25.195Z,125.17
2018-12-01T07:54:52.967Z,135.60
2018-12-01T07:57:20.775Z,123.03
2018-12-01T07:59:48.846Z,129.83
2018-12-01T08:02:16.912Z,123.87
2018-12-01T08:04:44.656Z,138.23
2018-12-01T08:07:12.497Z,143.47
2018-12-01T08:09:40.361Z,146.40
2018-12-01T08:12:08.420Z,138.60
2018-12-01T08:14:36.202Z,145.47
2018-12-01T08:17:03.964Z,155.47
2018-12-01T08:19:31.696Z,156.13
2018-12-01T08:21:59.395Z,138.70
2018-12-01T08:24:27.521Z,124.27
2018-12-01T08:26:55.339Z,130.93
2018-12-01T08:29:23.108Z,140.65
2018-12-01T08:31:52.309Z,138.37
2018-12-01T08:34:20.546Z,137.63
2018-12-01T08:36:48.553Z,127.37
2018-12-01T08:39:16.314Z,129.47
2018-12-01T08:41:44.058Z,122.93
2018-12-01T08:44:11.784Z,134.20
2018-12-01T08:46:39.703Z,141.27
2018-12-01T08:49:07.517Z,146.20
2018-12-01T08:51:35.392Z,145.27
2018-12-01T08:54:03.260Z,158.10
2018-12-01T08:56:30.875Z,153.20
2018-12-01T08:58:58.725Z,151.57
2018-12-01T09:01:26.472Z,144.37
2018-12-01T09:03:54.221Z,139.87
2018-12-01T09:06:22.024Z,136.07
2018-12-01T09:08:49.827Z,132.73
2018-12-01T09:11:17.603Z,136.33
2018-12-01T09:13:45.862Z,128.93
2018-12-01T09:16:13.715Z,133.70
2018-12-01T09:18:41.542Z,128.70
2018-12-01T09:21:09.420Z,119.90
2018-12-01T09:23:37.260Z,126.83
2018-12-01T09:26:05.225Z,120.63
2018-12-01T09:28:33.015Z,120.63
2018-12-01T09:31:00.857Z,112.23
2018-12-01T09:33:28.497Z,117.90
2018-12-01T09:35:56.261Z,131.40
2018-12-01T09:38:24.205Z,126.17
2018-12-01T09:40:52.064Z,131.67
2018-12-01T09:43:19.969Z,145.77
2018-12-01T09:45:47.677Z,140.93
2018-12-01T09:48:15.717Z,145.03
2018-12-01T09:50:43.665Z,143.27
2018-12-01T09:53:11.446Z,134.60
2018-12-01T09:55:39.207Z,141.63
2018-12-01T09:58:07.012Z,138.83
2018-12-01T10:00:34.873Z,153.20
2018-12-01T10:03:03.377Z,162.13
2018-12-01T10:05:31.376Z,148.77
2018-12-01T10:07:58.926Z,159.93
2018-12-01T10:10:26.653Z,172.57
2018-12-01T10:12:55.005Z,159.43
2018-12-01T10:15:24.053Z,156.70
2018-12-01T10:17:52.057Z,155.20
2018-12-01T10:20:26.270Z,161.07
2018-12-01T10:22:54.138Z,165.07
2018-12-01T10:25:21.916Z,163.20
2018-12-01T10:27:49.997Z,172.30
2018-12-01T10:30:19.110Z,176.30
2018-12-01T10:32:47.028Z,170.17
2018-12-01T10:35:15.421Z,163.57
2018-12-01T10:37:43.303Z,159.27
2018-12-01T10:40:11.578Z,159.80
2018-12-01T10:42:39.435Z,162.20
2018-12-01T10:45:09.324Z,171.60
2018-12-01T10:47:37.017Z,162.87
2018-12-01T10:50:05.613Z,142.53
2018-12-01T10:52:33.370Z,137.87
2018-12-01T10:55:01.030Z,102.43
2018-12-01T10:57:28.783Z,80.43
2018-12-01T10:59:56.454Z,61.03
2018-12-01T11:02:29.562Z,51.40
2018-12-01T11:04:57.342Z,48.50
2018-12-01T11:07:25.260Z,49.63
2018-12-01T11:09:53.207Z,52.73
2018-12-01T11:12:21.331Z,49.97
2018-12-01T11:14:49.162Z,52.37
2018-12-01T11:17:17.044Z,61.37
2018-12-01T11:19:44.727Z,61.23
2018-12-01T11:22:12.448Z,57.93
2018-12-01T11:24:40.307Z,52.73
2018-12-01T11:27:08.049Z,54.80
2018-12-01T11:29:36.101Z,56.03
2018-12-01T11:32:03.919Z,51.20
2018-12-01T11:34:31.713Z,55.83
2018-12-01T11:36:59.485Z,55.93
2018-12-01T11:39:27.281Z,49.37
2018-12-01T11:41:55.139Z,51.30
2018-12-01T11:44:23.004Z,51.53
2018-12-01T11:46:50.730Z,52.97
2018-12-01T11:49:18.544Z,48.83
2018-12-01T11:51:46.387Z,51.73
2018-12-01T11:54:14.089Z,52.77
2018-12-01T11:56:41.902Z,56.43
2018-12-01T11:59:09.672Z,54.23
2018-12-01T12:01:37.427Z,56.63
2018-12-01T12:04:05.831Z,56.00
2018-12-01T12:06:33.637Z,48.30
2018-12-01T12:09:01.480Z,58.03
2018-12-01T12:11:29.210Z,56.03
2018-12-01T12:13:56.931Z,53.17
2018-12-01T12:16:24.698Z,56.10
2018-12-01T12:18:52.584Z,54.93
2018-12-01T12:21:20.308Z,55.40
2018-12-01T12:23:48.058Z,46.70
2018-12-01T12:26:15.906Z,49.60
2018-12-01T12:28:43.580Z,53.10
2018-12-01T12:31:11.465Z,51.03
2018-12-01T12:33:39.496Z,60.23
2018-12-01T12:36:07.239Z,51.23
2018-12-01T12:38:35.074Z,54.63
2018-12-01T12:41:02.816Z,54.00
2018-12-01T12:43:30.521Z,60.87
2018-12-01T12:45:58.415Z,57.90
2018-12-01T12:48:26.240Z,69.27
2018-12-01T12:50:53.990Z,62.10
2018-12-01T12:53:21.844Z,59.13
2018-12-01T12:55:49.590Z,55.60
2018-12-01T12:58:17.281Z,62.27
2018-12-01T13:00:45.037Z,67.73
2018-12-01T13:03:13.121Z,60.40
2018-12-01T13:05:41.474Z,63.77
2018-12-01T13:08:09.682Z,62.60
2018-12-01T13:10:37.594Z,67.10
2018-12-01T13:13:06.186Z,64.53
2018-12-01T13:15:34.460Z,63.43
2018-12-01T13:18:02.708Z,61.57
2018-12-01T13:20:30.808Z,65.27
2018-12-01T13:22:59.639Z,65.80
2018-12-01T13:25:27.679Z,72.23
2018-12-01T13:28:03.431Z,80.53
2018-12-01T13:30:32.991Z,73.37
2018-12-01T13:33:01.050Z,76.50
2018-12-01T13:35:29.170Z,77.10
2018-12-01T13:37:57.340Z,80.67
2018-12-01T13:40:25.840Z,82.13
2018-12-01T13:42:54.150Z,83.00
2018-12-01T13:45:22.390Z,75.40
2018-12-01T13:47:50.646Z,70.30
2018-12-01T13:50:19.226Z,71.37
2018-12-01T13:52:48.996Z,69.67
2018-12-01T13:55:17.142Z,69.10
2018-12-01T13:57:45.302Z,73.70
2018-12-01T14:00:14.002Z,72.87
2018-12-01T14:02:42.100Z,72.97
2018-12-01T14:05:10.453Z,73.20
2018-12-01T14:07:38.367Z,72.67
2018-12-01T14:10:10.861Z,77.20
2018-12-01T14:12:38.685Z,81.23
2018-12-01T14:15:09.806Z,75.77
2018-12-01T14:17:38.243Z,88.47
2018-12-01T14:20:06.613Z,73.83
2018-12-01T14:22:34.439Z,74.07
2018-12-01T14:25:02.496Z,75.50
2018-12-01T14:27:30.437Z,74.87
2018-12-01T14:29:58.546Z,76.77
2018-12-01T14:32:27.244Z,72.03
2018-12-01T14:34:55.504Z,78.67
2018-12-01T14:37:23.643Z,76.43
2018-12-01T14:39:51.745Z,78.63
2018-12-01T14:42:19.877Z,86.70
2018-12-01T14:44:48.277Z,86.53
2018-12-01T14:47:16.498Z,90.23
2018-12-01T14:49:44.376Z,89.17
2018-12-01T14:52:12.152Z,108.87
2018-12-01T14:54:40.045Z,95.03
2018-12-01T14:57:07.843Z,86.23
2018-12-01T14:59:35.576Z,83.30
2018-12-01T15:02:03.422Z,88.60
2018-12-01T15:04:31.149Z,90.30
2018-12-01T15:06:58.947Z,93.10
2018-12-01T15:09:26.690Z,87.80
2018-12-01T15:11:54.503Z,87.97
2018-12-01T15:14:22.207Z,88.00
2018-12-01T15:16:50.031Z,102.70
2018-12-01T15:19:17.734Z,105.07
2018-12-01T15:21:45.500Z,103.73
2018-12-01T15:24:13.323Z,107.77
2018-12-01T15:26:41.034Z,105.27
2018-12-01T15:29:08.848Z,107.67
2018-12-01T15:31:36.625Z,112.77
2018-12-01T15:34:04.597Z,112.60
2018-12-01T15:36:32.589Z,106.70
2018-12-01T15:39:00.419Z,101.70
2018-12-01T15:41:28.235Z,110.73
2018-12-01T15:43:55.878Z,101.80
2018-12-01T15:46:23.614Z,107.97
2018-12-01T15:48:51.338Z,103.33
2018-12-01T15:51:19.072Z,96.23
2018-12-01T15:53:46.794Z,105.70
2018-12-01T15:56:14.571Z,96.83
2018-12-01T15:58:42.285Z,97.37
2018-12-01T16:01:10.189Z,97.17
2018-12-01T16:03:38.031Z,96.80
2018-12-01T16:06:05.779Z,94.27
2018-12-01T16:08:33.905Z,101.53
2018-12-01T16:11:01.727Z,97.93
2018-12-01T16:13:29.601Z,95.43
2018-12-01T16:16:00.366Z,96.00
2018-12-01T16:18:28.118Z,95.60
2018-12-01T16:20:55.952Z,94.20
2018-12-01T16:23:23.715Z,101.77
2018-12-01T16:25:51.689Z,96.87
2018-12-01T16:28:19.375Z,95.23
2018-12-01T16:30:46.964Z,93.00
2018-12-01T16:33:15.380Z,88.30
2018-12-01T16:35:43.309Z,86.30
2018-12-01T16:38:11.617Z,94.77
2018-12-01T16:40:45.153Z,84.70
2018-12-01T16:43:13.263Z,82.60
2018-12-01T16:45:41.199Z,84.00
2018-12-01T16:48:08.939Z,92.47
2018-12-01T16:50:37.227Z,92.57
2018-12-01T16:53:05.552Z,88.23
2018-12-01T16:55:33.390Z,94.23
2018-12-01T16:58:01.160Z,85.63
2018-12-01T17:00:28.931Z,94.23
2018-12-01T17:02:57.159Z,98.23
2018-12-01T17:05:25.812Z,99.20
2018-12-01T17:07:53.830Z,94.40
2018-12-01T17:10:21.846Z,96.53
2018-12-01T17:12:50.313Z,94.37
2018-12-01T17:15:18.363Z,103.87
2018-12-01T17:17:46.229Z,100.27
2018-12-01T17:20:14.503Z,107.30
2018-12-01T17:22:42.773Z,102.83
2018-12-01T17:25:11.052Z,97.07
2018-12-01T17:27:39.229Z,112.03
2018-12-01T17:30:14.721Z,103.30
2018-12-01T17:32:42.487Z,104.73
2018-12-01T17:35:14.173Z,104.77
2018-12-01T17:37:42.311Z,111.17
2018-12-01T17:40:11.007Z,114.47
2018-12-01T17:42:38.737Z,104.70
2018-12-01T17:45:08.134Z,113.67
2018-12-01T17:47:35.801Z,116.60
2018-12-01T17:50:04.026Z,115.53
2018-12-01T17:52:31.861Z,114.83
2018-12-01T17:54:59.641Z,110.93
2018-12-01T17:57:27.374Z,107.70
2018-12-01T17:59:55.056Z,105.37
2018-12-01T18:02:22.818Z,106.03
2018-12-01T18:04:50.559Z,108.53
2018-12-01T18:07:18.318Z,107.17
2018-12-01T18:09:46.188Z,105.53
2018-12-01T18:12:13.946Z,111.93
2018-12-01T18:14:41.924Z,104.60
2018-12-01T18:17:09.783Z,104.83
2018-12-01T18:19:37.592Z,102.20
2018-12-01T18:22:05.781Z,99.10
2018-12-01T18:24:33.588Z,105.67
2018-12-01T18:27:01.406Z,104.60
2018-12-01T18:29:29.255Z,95.23
2018-12-01T18:31:57.073Z,97.57
2018-12-01T18:34:24.753Z,99.03
2018-12-01T18:36:52.597Z,100.97
2018-12-01T18:39:20.636Z,105.13
2018-12-01T18:41:48.465Z,109.20
2018-12-01T18:44:16.369Z,105.97
2018-12-01T18:46:44.643Z,111.47
2018-12-01T18:49:12.420Z,111.40
2018-12-01T18:51:40.146Z,118.63
2018-12-01T18:54:07.932Z,111.37
2018-12-01T18:56:35.634Z,115.90
2018-12-01T18:59:03.446Z,126.23
2018-12-01T19:01:31.304Z,125.40
2018-12-01T19:03:59.035Z,125.00
2018-12-01T19:06:26.915Z,115.83
2018-12-01T19:08:54.783Z,130.00
2018-12-01T19:11:22.648Z,122.00
2018-12-01T19:13:50.357Z,127.97
2018-12-01T19:16:18.115Z,119.27
2018-12-01T19:18:45.852Z,129.83
2018-12-01T19:21:13.760Z,115.47
2018-12-01T19:23:41.516Z,117.43
2018-12-01T19:26:09.243Z,114.33
2018-12-01T19:28:37.055Z,111.80
2018-12-01T19:31:04.826Z,115.47
2018-12-01T19:33:32.623Z,112.60
2018-12-01T19:36:00.342Z,107.93
2018-12-01T19:38:28.626Z,118.00
2018-12-01T19:40:57.168Z,127.90
2018-12-01T19:43:25.066Z,118.20
2018-12-01T19:45:52.790Z,113.93
2018-12-01T19:48:20.632Z,115.37
2018-12-01T19:50:48.628Z,112.27
2018-12-01T19:53:16.968Z,113.20
2018-12-01T19:55:45.387Z,107.83
2018-12-01T19:58:13.953Z,111.70
2018-12-01T20:00:42.454Z,112.70
2018-12-01T20:03:11.427Z,106.07
2018-12-01T20:05:39.265Z,112.90
2018-12-01T20:08:07.371Z,113.97
2018-12-01T20:10:39.084Z,106.90
2018-12-01T20:13:07.942Z,106.60
2018-12-01T20:15:37.484Z,101.13
2018-12-01T20:18:08.337Z,102.70
2018-12-01T20:20:36.095Z,114.57
2018-12-01T20:23:04.315Z,108.83
2018-12-01T20:25:32.041Z,116.00
2018-12-01T20:27:59.750Z,117.43
2018-12-01T20:30:27.421Z,117.47
2018-12-01T20:32:55.381Z,133.63
2018-12-01T20:35:29.457Z,131.70
2018-12-01T20:37:59.234Z,130.73
2018-12-01T20:40:27.057Z,131.43
2018-12-01T20:42:55.253Z,128.17
2018-12-01T20:45:23.051Z,137.77
2018-12-01T20:47:50.923Z,146.40
2018-12-01T20:50:18.627Z,140.20
2018-12-01T20:52:46.874Z,108.73
2018-12-01T20:55:18.553Z,112.67
2018-12-01T20:57:47.307Z,98.17
2018-12-01T21:00:15.376Z,87.13
2018-12-01T21:02:43.297Z,87.13
2018-12-01T21:05:25.972Z,86.83
2018-12-01T21:07:54.007Z,96.03
2018-12-01T21:10:26.815Z,100.13
2018-12-01T21:12:54.708Z,96.53
2018-12-01T21:15:22.536Z,95.77
2018-12-01T21:17:50.325Z,93.40
2018-12-01T21:20:18.288Z,93.07
2018-12-01T21:22:47.453Z,95.50
2018-12-01T21:25:16.987Z,96.20
2018-12-01T21:27:44.797Z,106.50
2018-12-01T21:30:20.204Z,96.57
2018-12-01T21:32:48.775Z,107.93
2018-12-01T21:35:16.531Z,101.00
2018-12-01T21:37:44.311Z,101.43
2018-12-01T21:40:14.787Z,98.30
2018-12-01T21:42:42.441Z,105.37
2018-12-01T21:45:11.122Z,98.13
2018-12-01T21:47:38.892Z,104.43
2018-12-01T21:50:08.007Z,102.93
2018-12-01T21:52:35.706Z,102.10
2018-12-01T21:55:03.472Z,101.90
2018-12-01T21:57:31.183Z,102.50
2018-12-01T21:59:59.479Z,98.87
2018-12-01T22:02:27.099Z,113.07
2018-12-01T22:04:54.823Z,109.57
2018-12-01T22:07:22.589Z,104.23
2018-12-01T22:09:50.394Z,104.37
2018-12-01T22:12:18.178Z,105.57
2018-12-01T22:14:45.887Z,98.47
2018-12-01T22:17:13.711Z,103.23
2018-12-01T22:19:41.481Z,101.43
2018-12-01T22:22:09.902Z,95.60
2018-12-01T22:24:37.646Z,98.07
2018-12-01T22:27:05.396Z,91.60
2018-12-01T22:29:33.297Z,84.87
2018-12-01T22:32:01.308Z,92.10
2018-12-01T22:34:29.089Z,93.47
2018-12-01T22:36:56.895Z,92.57
2018-12-01T22:39:24.828Z,88.57
2018-12-01T22:41:52.695Z,90.43
2018-12-01T22:44:21.073Z,82.60
2018-12-01T22:46:49.241Z,82.17
2018-12-01T22:49:16.970Z,79.97
2018-12-01T22:51:44.811Z,79.30
2018-12-01T22:54:13.719Z,74.97
2018-12-01T22:56:41.551Z,73.07
2018-12-01T22:59:09.708Z,75.30
2018-12-01T23:01:37.716Z,73.43
2018-12-01T23:04:06.140Z,68.53
2018-12-01T23:06:34.069Z,69.43
2018-12-01T23:09:01.901Z,64.00
2018-12-01T23:11:29.744Z,61.73
2018-12-01T23:13:57.587Z,60.00
2018-12-01T23:16:25.405Z,62.60
2018-12-01T23:18:53.344Z,59.43
2018-12-01T23:21:21.182Z,65.13
2018-12-01T23:23:48.954Z,64.83
2018-12-01T23:26:16.670Z,64.50
2018-12-01T23:28:44.666Z,72.20
2018-12-01T23:31:12.897Z,70.80
2018-12-01T23:33:40.684Z,67.27
2018-12-01T23:36:08.631Z,80.27
2018-12-01T23:38:36.471Z,76.10
2018-12-01T23:41:04.223Z,82.07
2018-12-01T23:43:32.252Z,85.63
2018-12-01T23:46:00.029Z,76.67
2018-12-01T23:48:28.060Z,80.33
2018-12-01T23:50:56.206Z,80.87
2018-12-01T23:53:24.410Z,76.90
2018-12-01T23:55:52.300Z,68.23
2018-12-01T23:58:20.090Z,68.93
